ADDS METAR Data INFO
IDs: Format: Raw Decoded Include TAF

Data at: 0153 UTC 21 Apr 2018

KMKN 210135Z AUTO 14013G18KT 10SM OVC050 18/07 A3000 RMK AO2 T01840067
KMKN 210115Z AUTO 14013G21KT 10SM OVC050 19/07 A3000 RMK AO2 T01860065
KMKN 210055Z AUTO 14014G22KT 10SM OVC055 19/07 A3000 RMK AO2 T01900065
KMKN 210035Z AUTO 15013G20KT 10SM OVC055 19/06 A3001 RMK AO2 T01920063
KMKN 210015Z AUTO 14012G19KT 10SM OVC055 20/07 A3001 RMK AO2 T01950065
KMKN 202355Z AUTO 14013G17KT 10SM OVC055 20/07 A3002 RMK AO2 T01980066 10222 20190
KMKN 202335Z AUTO 14014G21KT 10SM OVC055 20/07 A3003 RMK AO2 T02020067
KMKN 202315Z AUTO 15013G17KT 10SM OVC055 21/07 A3004 RMK AO2 T02050068
KMKN 202255Z AUTO 10SM OVC055 21/07 A3004 RMK AO2 T02050068
KMKN 202235Z AUTO 10SM OVC055 21/07 A3004 RMK AO2 T02100067
KMKN 202215Z AUTO 15013KT 10SM BKN055 21/07 A3005 RMK AO2 T02050067
KMKN 202155Z AUTO 10SM CLR 21/07 A3005 RMK AO2 T02100067
KMKN 202135Z AUTO 10SM SCT050 22/07 A3006 RMK AO2 T02180070
KMKN 202115Z AUTO 14014G20KT 10SM SCT050 SCT065 21/07 A3007 RMK AO2 T02120065
KMKN 202055Z AUTO 13013G21KT 10SM CLR 22/07 A3008 RMK AO2 LTG DSNT N T02150067
KMKN 202035Z AUTO 16013G20KT 10SM CLR 22/07 A3009 RMK AO2 LTG DSNT N T02160068
KMKN 202015Z AUTO 10SM CLR 22/07 A3010 RMK AO2 T02150068
KMKN 201955Z AUTO 15013KT 10SM CLR 21/07 A3011 RMK AO2 T02090071
KMKN 201935Z AUTO 10SM SCT048 SCT075 21/07 A3013 RMK AO2 T02060067
KMKN 201915Z AUTO 10SM SCT050 SCT075 21/07 A3014 RMK AO2 T02070072
KMKN 201855Z AUTO 10SM SCT050 SCT075 20/07 A3016 RMK AO2 LTG DSNT NW T02020073
KMKN 201835Z AUTO 10SM SCT075 20/07 A3017 RMK AO2 T01970068
KMKN 201815Z AUTO 14013KT 10SM CLR 19/07 A3019 RMK AO2 T01930065
KMKN 201755Z AUTO 12016KT 10SM SCT075 19/07 A3019 RMK AO2 T01940067 10194 20070
KMKN 201735Z AUTO 12014G22KT 10SM BKN075 18/07 A3020 RMK AO2 T01820065
KMKN 201715Z AUTO 11014G23KT 10SM SCT075 19/07 A3020 RMK AO2 T01850068
KMKN 201655Z AUTO 13012G23KT 10SM CLR 18/07 A3022 RMK AO2 T01780065
KMKN 201635Z AUTO 13015G22KT 10SM CLR 17/06 A3022 RMK AO2 LTG DSNT NW T01740063
KMKN 201615Z AUTO 12012G19KT 10SM CLR 17/07 A3023 RMK AO2 T01740066
KMKN 201555Z AUTO 13014G20KT 10SM SCT085 17/07 A3024 RMK AO2 T01670065
KMKN 201535Z AUTO 14015G21KT 10SM SCT085 15/06 A3023 RMK AO2 T01530060
KMKN 201515Z AUTO 12012G20KT 10SM CLR 15/06 A3022 RMK AO2 T01540062
KMKN 201455Z AUTO 14017KT 10SM CLR 15/06 A3023 RMK AO2 T01450058
KMKN 201435Z AUTO 13014G21KT 10SM CLR 14/06 A3022 RMK AO2 T01400060
KMKN 201415Z AUTO 10SM CLR 13/06 A3023 RMK AO2 T01260056
KMKN 201355Z AUTO 13009G15KT 10SM CLR 12/06 A3024 RMK AO2 T01220058
KMKN 201335Z AUTO 14008KT 10SM CLR 10/05 A3025 RMK AO2 T00970049
KMKN 201315Z AUTO 14008KT 10SM CLR 09/04 A3025 RMK AO2 T00870043
KMKN 201255Z AUTO 13006KT 10SM CLR 09/04 A3024 RMK AO2 T00860042
KMKN 201235Z AUTO 12008KT 10SM CLR 08/04 A3022 RMK AO2 T00810040
KMKN 201215Z AUTO 14006KT 10SM CLR 07/04 A3023 RMK AO2 T00710036
KMKN 201155Z AUTO 14004KT 10SM CLR 07/03 A3022 RMK AO2 T00710034 10101 20071
KMKN 201135Z AUTO 12005KT 10SM CLR 07/03 A3021 RMK AO2 T00730032
KMKN 201110Z AUTO 11004KT 10SM CLR 08/03 A3021 RMK AO2 T00750031
KMKN 201050Z AUTO 12004KT 10SM CLR 08/03 A3020 RMK AO2 T00790031
KMKN 201035Z AUTO 14004KT 10SM CLR 08/03 A3020 RMK AO2 T00800030
KMKN 201019Z AUTO 15003KT 10SM CLR 08/03 A3021 RMK AO2
KMKN 201000Z AUTO 13003KT 10SM CLR 08/03 A3021 RMK AO2 T00810028
KMKN 200930Z AUTO 14004KT 10SM CLR 09/03 A3022 RMK AO2 T00860026
KMKN 200915Z AUTO 00000KT 10SM CLR 09/03 A3022 RMK AO2 T00860025
KMKN 200855Z AUTO 00000KT 10SM CLR 08/03 A3022 RMK AO2 T00840025
KMKN 200835Z AUTO 00000KT 10SM CLR 08/03 A3023 RMK AO2 T00770025
KMKN 200815Z AUTO 09006KT 10SM CLR 09/02 A3023 RMK AO2 T00850024
KMKN 200755Z AUTO 14003KT 10SM CLR 10/02 A3025 RMK AO2 T01000022
KMKN 200735Z AUTO 18003KT 10SM CLR 10/02 A3025 RMK AO2 T00970022
KMKN 200715Z AUTO 18003KT 10SM CLR 10/02 A3025 RMK AO2 T00960022
KMKN 200655Z AUTO 15003KT 10SM CLR 10/02 A3025 RMK AO2 T00970022
KMKN 200635Z AUTO 14005KT 10SM CLR 10/02 A3025 RMK AO2 T00950022
KMKN 200615Z AUTO 15006KT 10SM CLR 10/02 A3025 RMK AO2 T00970023
KMKN 200555Z AUTO 15006KT 10SM CLR 10/03 A3025 RMK AO2 T00970025 10208 20097 402260073
KMKN 200535Z AUTO 13005KT 10SM CLR 10/03 A3024 RMK AO2 T01000025
KMKN 200515Z AUTO 10SM CLR 11/03 A3025 RMK AO2 T01050028
KMKN 200455Z AUTO 10SM CLR 11/03 A3024 RMK AO2 T01060029
KMKN 200435Z AUTO 10SM CLR 11/03 A3026 RMK AO2 T01120030
KMKN 200415Z AUTO 10SM CLR 12/03 A3026 RMK AO2 T01150030
KMKN 200355Z AUTO 10SM CLR 12/03 A3026 RMK AO2 T01190027
KMKN 200335Z AUTO 13005KT 10SM CLR 13/03 A3026 RMK AO2 T01260025
KMKN 200315Z AUTO 14004KT 10SM CLR 13/02 A3026 RMK AO2 T01280022
KMKN 200255Z AUTO 13004KT 10SM CLR 14/02 A3026 RMK AO2 T01350017
KMKN 200235Z AUTO 12004KT 10SM CLR 14/01 A3025 RMK AO2 T01360012
KMKN 200215Z AUTO 11006KT 10SM CLR 14/01 A3025 RMK AO2 T01440009
KMKN 200155Z AUTO 10005KT 10SM CLR 15/01 A3025 RMK AO2 T01480010
KMKN 200135Z AUTO 10005KT 10SM CLR 15/01 A3025 RMK AO2 T01540010
KMKN 200115Z AUTO 09004KT 10SM CLR 16/02 A3025 RMK AO2 T01640016
KMKN 200055Z AUTO 08005KT 10SM CLR 18/02 A3024 RMK AO2 T01770020
KMKN 200035Z AUTO 09006KT 10SM CLR 19/03 A3025 RMK AO2 T01920026
KMKN 200015Z AUTO 10006KT 10SM CLR 20/02 A3025 RMK AO2 T02020022
KMKN 192355Z AUTO 09005KT 10SM CLR 21/02 A3025 RMK AO2 T02080017 10226 20197
KMKN 192335Z AUTO 08006KT 10SM CLR 21/02 A3025 RMK AO2 T02110017
KMKN 192315Z AUTO 06008KT 10SM CLR 22/02 A3025 RMK AO2 T02160018
KMKN 192255Z AUTO 06006KT 10SM CLR 22/01 A3025 RMK AO2 T02170012
KMKN 192235Z AUTO 04011KT 10SM CLR 22/02 A3025 RMK AO2 T02200020
KMKN 192215Z AUTO 08008G16KT 10SM CLR 22/02 A3026 RMK AO2 T02200017
KMKN 192155Z AUTO 05010G16KT 10SM CLR 23/02 A3027 RMK AO2 T02250015
KMKN 192135Z AUTO 07007KT 10SM CLR 22/01 A3027 RMK AO2 T02160009
KMKN 192115Z AUTO 08008G14KT 10SM CLR 22/00 A3028 RMK AO2 T02180002
KMKN 192055Z AUTO 05009G14KT 10SM CLR 22/01 A3029 RMK AO2 T02200013
KMKN 192035Z AUTO 07006G16KT 10SM CLR 22/01 A3031 RMK AO2 T02190007
KMKN 192015Z AUTO 07010KT 10SM CLR 22/00 A3032 RMK AO2 T02200003
KMKN 191955Z AUTO 06010G14KT 10SM CLR 22/01 A3033 RMK AO2 T02170005
KMKN 191935Z AUTO 06008G15KT 040V100 10SM CLR 22/01 A3034 RMK AO2 T02200011
KMKN 191915Z AUTO 04009KT 360V070 10SM CLR 22/02 A3034 RMK AO2 T02150015
KMKN 191855Z AUTO 03010KT 10SM CLR 21/01 A3035 RMK AO2 T02110014
KMKN 191835Z AUTO 05011KT 10SM CLR 21/02 A3035 RMK AO2 T02070017
KMKN 191815Z AUTO 07009G15KT 10SM CLR 20/01 A3035 RMK AO2 T02000011
KMKN 191755Z AUTO 07007KT 10SM CLR 20/01 A3036 RMK AO2 T01960012 10205 20087
KMKN 191735Z AUTO 06009KT 10SM CLR 20/01 A3037 RMK AO2 T01990013
KMKN 191715Z AUTO 09006G14KT 10SM CLR 20/02 A3037 RMK AO2 T01980015
KMKN 191655Z AUTO 10010G14KT 10SM CLR 20/01 A3037 RMK AO2 T01990006
KMKN 191635Z AUTO 04008G14KT 10SM CLR 20/01 A3039 RMK AO2 T01950014
KMKN 191615Z AUTO 06007KT 020V130 10SM CLR 19/01 A3039 RMK AO2 T01910014
KMKN 191555Z AUTO 07007KT 10SM CLR 18/00 A3039 RMK AO2 T01760003
KMKN 191535Z AUTO 04007KT 10SM CLR 17/01 A3038 RMK AO2 T01740006
KMKN 191515Z AUTO 07006KT 10SM CLR 17/01 A3038 RMK AO2 T01680006
KMKN 191455Z AUTO 08006KT 10SM CLR 17/01 A3038 RMK AO2 T01660007
KMKN 191435Z AUTO 06006KT 10SM CLR 15/01 A3038 RMK AO2 T01520005
KMKN 191415Z AUTO 08004KT 10SM CLR 14/01 A3037 RMK AO2 T01400013
KMKN 191355Z AUTO 07003KT 10SM CLR 13/02 A3036 RMK AO2 T01310015